Time;durP1;ratioP1;P1;durP2;ratioP2;P2;SDS_P1;SDS_P2;PMS_P1;PMS_P2;Temp;Humidity;BMP_temperature;BMP_pressure;BME280_temperature;BME280_humidity;BME280_pressure;Samples;Min_cycle;Max_cycle;Signal;HPM_P1;HPM_P2
2021/12/09 00:01:10;;;;;;;22.98;7.90;;;1.80;99.90;;;;;;5057232;28;20035;-86
2021/12/09 00:03:40;;;;;;;27.00;8.15;;;1.80;99.90;;;;;;5041956;28;20148;-85
2021/12/09 00:06:07;;;;;;;27.60;8.40;;;1.80;99.90;;;;;;5052367;28;20623;-86
2021/12/09 00:08:33;;;;;;;26.23;7.75;;;1.70;99.90;;;;;;5052845;28;20073;-86
2021/12/09 00:11:03;;;;;;;25.10;8.25;;;1.70;99.90;;;;;;5057259;28;20448;-86
2021/12/09 00:13:29;;;;;;;27.20;7.68;;;1.70;99.90;;;;;;5056952;28;20075;-86
2021/12/09 00:15:56;;;;;;;28.15;9.73;;;1.70;99.90;;;;;;5056251;28;20038;-86
2021/12/09 00:18:22;;;;;;;26.55;8.43;;;1.70;99.90;;;;;;5048459;28;20030;-86
2021/12/09 00:20:47;;;;;;;23.35;8.18;;;1.60;99.90;;;;;;5031555;28;20037;-86
2021/12/09 00:23:14;;;;;;;24.40;8.23;;;1.60;99.90;;;;;;4997505;28;20043;-86
2021/12/09 00:25:39;;;;;;;20.77;7.95;;;1.50;99.90;;;;;;5072560;28;20042;-86
2021/12/09 00:28:05;;;;;;;24.95;8.18;;;1.50;99.90;;;;;;4997513;28;20034;-87
2021/12/09 00:30:32;;;;;;;26.90;8.15;;;1.50;99.90;;;;;;5069999;28;20059;-86
2021/12/09 00:33:00;;;;;;;25.63;7.93;;;1.50;99.90;;;;;;5067363;28;20030;-86
2021/12/09 00:35:31;;;;;;;17.50;7.45;;;1.50;99.90;;;;;;5067947;28;20087;-86
2021/12/09 00:38:07;;;;;;;27.55;7.88;;;1.40;99.90;;;;;;5066201;28;20023;-86
2021/12/09 00:40:33;;;;;;;22.13;8.57;;;1.40;99.90;;;;;;5038423;28;20129;-86
2021/12/09 00:42:59;;;;;;;27.02;7.50;;;1.40;99.90;;;;;;5027616;28;20491;-86
2021/12/09 00:45:26;;;;;;;19.63;7.72;;;1.40;99.90;;;;;;5041366;28;20034;-85
2021/12/09 00:47:52;;;;;;;17.67;7.35;;;1.40;99.90;;;;;;5036096;28;20515;-86
2021/12/09 00:50:18;;;;;;;25.48;8.45;;;1.30;99.90;;;;;;5073990;28;20054;-86
2021/12/09 00:52:45;;;;;;;19.25;6.03;;;1.30;99.90;;;;;;5052506;28;20034;-86
2021/12/09 00:55:11;;;;;;;12.68;6.10;;;1.20;99.90;;;;;;5036060;28;20038;-86
2021/12/09 00:57:40;;;;;;;22.08;7.10;;;1.20;99.90;;;;;;4973978;28;20022;-86
2021/12/09 01:00:12;;;;;;;24.25;7.78;;;1.10;99.90;;;;;;5050197;28;20049;-86
2021/12/09 01:02:38;;;;;;;18.17;6.68;;;1.10;99.90;;;;;;5033313;28;20030;-86
2021/12/09 01:05:06;;;;;;;17.73;6.75;;;1.20;99.90;;;;;;5068049;28;20402;-86
2021/12/09 01:07:32;;;;;;;15.07;6.55;;;1.20;99.90;;;;;;5050640;28;20721;-86
2021/12/09 01:09:58;;;;;;;15.00;5.63;;;1.30;99.90;;;;;;5045931;28;20026;-86
2021/12/09 01:12:23;;;;;;;19.67;6.80;;;1.30;99.90;;;;;;5069872;28;20031;-86
2021/12/09 01:14:49;;;;;;;18.15;6.47;;;1.30;99.90;;;;;;5088894;28;20215;-86
2021/12/09 01:17:16;;;;;;;20.23;6.75;;;1.40;99.90;;;;;;5048157;28;20031;-86
2021/12/09 01:19:42;;;;;;;16.75;6.55;;;1.40;99.90;;;;;;5039110;28;20418;-86
2021/12/09 01:22:09;;;;;;;18.65;6.10;;;1.50;99.90;;;;;;5053203;28;20125;-87
2021/12/09 01:24:34;;;;;;;17.95;6.15;;;1.50;99.90;;;;;;4987526;28;20575;-86
2021/12/09 01:27:01;;;;;;;12.48;5.50;;;1.50;99.90;;;;;;5057675;28;20130;-84
2021/12/09 01:29:37;;;;;;;16.48;6.22;;;1.50;99.90;;;;;;5038903;28;20066;-86
2021/12/09 01:32:06;;;;;;;21.63;6.40;;;1.50;99.90;;;;;;5049999;28;20037;-87
2021/12/09 01:34:34;;;;;;;11.25;5.72;;;1.50;99.90;;;;;;5038040;28;20030;-86
2021/12/09 01:37:00;;;;;;;13.57;5.93;;;1.50;99.90;;;;;;5051773;28;20034;-86
2021/12/09 01:39:28;;;;;;;21.50;5.53;;;1.40;99.90;;;;;;5038938;28;20410;-86
2021/12/09 01:41:54;;;;;;;18.65;6.20;;;1.40;99.90;;;;;;5064071;28;20033;-86
2021/12/09 01:44:23;;;;;;;12.57;5.95;;;1.30;99.90;;;;;;5036703;28;20827;-86
2021/12/09 01:46:50;;;;;;;24.17;5.90;;;1.30;99.90;;;;;;5055182;28;20026;-85
2021/12/09 01:49:15;;;;;;;13.73;5.50;;;1.20;99.90;;;;;;5038381;28;20117;-86
2021/12/09 01:51:41;;;;;;;15.77;6.15;;;1.20;99.90;;;;;;5034969;28;20463;-86
2021/12/09 01:54:08;;;;;;;16.48;5.70;;;1.20;99.90;;;;;;5063904;23;20497;-84
2021/12/09 01:56:34;;;;;;;20.52;6.15;;;1.20;99.90;;;;;;5021209;28;20031;-84
2021/12/09 01:59:04;;;;;;;19.17;6.47;;;1.20;99.90;;;;;;5038194;28;20034;-84
2021/12/09 02:01:31;;;;;;;20.88;6.53;;;1.20;99.90;;;;;;4987662;28;20061;-84
2021/12/09 02:03:58;;;;;;;16.60;6.35;;;1.20;99.90;;;;;;5005913;28;20481;-84
2021/12/09 02:06:24;;;;;;;14.77;6.40;;;1.10;99.90;;;;;;5034616;28;20024;-84
2021/12/09 02:08:51;;;;;;;17.88;5.95;;;1.00;99.90;;;;;;4997983;28;20024;-84
2021/12/09 02:11:17;;;;;;;17.20;6.32;;;1.00;99.90;;;;;;4985269;28;20028;-83
2021/12/09 02:13:44;;;;;;;15.00;6.80;;;0.90;99.90;;;;;;5037998;28;20518;-83
2021/12/09 02:16:11;;;;;;;16.40;6.18;;;0.80;99.90;;;;;;5035079;28;20580;-83
2021/12/09 02:18:37;;;;;;;22.00;6.82;;;0.80;99.90;;;;;;4947301;28;20039;-83
2021/12/09 02:21:14;;;;;;;16.58;6.63;;;0.70;99.90;;;;;;5001174;28;20038;-83
2021/12/09 02:23:50;;;;;;;17.92;6.55;;;0.60;99.90;;;;;;5031418;28;20036;-83
2021/12/09 02:26:19;;;;;;;14.48;6.45;;;0.60;99.90;;;;;;5024315;28;20109;-83
2021/12/09 02:28:45;;;;;;;15.90;6.20;;;0.50;99.90;;;;;;5006766;28;20046;-83
2021/12/09 02:31:12;;;;;;;16.42;6.03;;;0.50;99.90;;;;;;5043918;28;20442;-83
2021/12/09 02:33:37;;;;;;;16.23;6.15;;;0.50;99.90;;;;;;5030769;28;20067;-83
2021/12/09 02:36:04;;;;;;;13.93;5.20;;;0.50;99.90;;;;;;5045491;28;20081;-83
2021/12/09 02:38:30;;;;;;;19.30;5.68;;;0.40;99.90;;;;;;5032000;28;20031;-83
2021/12/09 02:40:58;;;;;;;13.82;5.95;;;0.40;99.90;;;;;;4982571;28;20028;-83
2021/12/09 02:43:27;;;;;;;17.88;6.03;;;0.40;99.90;;;;;;5025110;28;20081;-83
2021/12/09 02:45:54;;;;;;;17.50;6.55;;;0.30;99.90;;;;;;5025089;28;20027;-83
2021/12/09 02:48:21;;;;;;;17.63;6.35;;;0.30;99.90;;;;;;5016580;28;20066;-83
2021/12/09 02:50:48;;;;;;;21.40;5.80;;;0.30;99.90;;;;;;4982156;28;20039;-83
2021/12/09 02:53:16;;;;;;;23.27;7.20;;;0.30;99.90;;;;;;5028691;28;20067;-83
2021/12/09 02:55:43;;;;;;;14.00;4.97;;;0.20;99.90;;;;;;4986515;28;20050;-83
2021/12/09 02:58:08;;;;;;;22.25;6.72;;;0.20;99.90;;;;;;4984453;28;20028;-84
2021/12/09 03:01:12;;;;;;;15.40;6.10;;;0.20;99.90;;;;;;5040935;28;20086;-84
2021/12/09 03:03:45;;;;;;;15.85;4.70;;;0.10;99.90;;;;;;5015206;28;20386;-83
2021/12/09 03:06:12;;;;;;;11.93;5.15;;;0.10;99.90;;;;;;5021353;28;20105;-83
2021/12/09 03:08:40;;;;;;;17.10;5.45;;;0.00;99.90;;;;;;5015399;28;20039;-84
2021/12/09 03:11:09;;;;;;;12.65;4.82;;;0.00;99.90;;;;;;5036425;28;20028;-83
2021/12/09 03:13:36;;;;;;;14.43;4.95;;;0.00;99.90;;;;;;5028506;28;20039;-83
2021/12/09 03:16:04;;;;;;;22.60;4.85;;;0.00;99.90;;;;;;5023205;28;20042;-83
2021/12/09 03:18:31;;;;;;;17.50;5.72;;;0.10;99.90;;;;;;4982792;28;20130;-83
2021/12/09 03:20:57;;;;;;;16.83;5.43;;;0.10;99.90;;;;;;4983976;28;20070;-83
2021/12/09 03:23:23;;;;;;;19.58;5.05;;;0.10;99.90;;;;;;5002579;28;20023;-83
2021/12/09 03:25:50;;;;;;;17.60;6.32;;;0.10;99.90;;;;;;4993434;28;20033;-84
2021/12/09 03:28:16;;;;;;;11.48;5.47;;;0.10;99.90;;;;;;5019474;28;20038;-84
2021/12/09 03:30:42;;;;;;;18.48;5.03;;;0.20;99.90;;;;;;4998559;28;20062;-84
2021/12/09 03:33:07;;;;;;;13.60;4.78;;;0.20;99.90;;;;;;4953110;28;20031;-83
2021/12/09 03:35:33;;;;;;;15.40;5.18;;;0.20;99.90;;;;;;5036615;28;20035;-84
2021/12/09 03:37:59;;;;;;;19.23;5.68;;;0.30;99.90;;;;;;5032848;28;20155;-84
2021/12/09 03:40:25;;;;;;;11.90;5.60;;;0.40;99.90;;;;;;5019245;28;20086;-83
2021/12/09 03:42:51;;;;;;;16.05;5.63;;;0.50;99.90;;;;;;5048572;28;20062;-83
2021/12/09 03:45:16;;;;;;;17.15;5.90;;;0.50;99.90;;;;;;5034342;28;20051;-84
2021/12/09 03:47:43;;;;;;;15.93;6.38;;;0.60;99.90;;;;;;5001904;28;20560;-83
2021/12/09 03:50:11;;;;;;;13.50;5.97;;;0.70;99.90;;;;;;5019019;28;20042;-83
2021/12/09 03:52:36;;;;;;;23.20;7.45;;;0.80;99.90;;;;;;5018219;28;20084;-83
2021/12/09 03:55:05;;;;;;;15.80;6.05;;;0.80;99.90;;;;;;5018716;28;20031;-84
2021/12/09 03:57:31;;;;;;;19.67;6.75;;;0.90;99.90;;;;;;5003026;28;20042;-83
2021/12/09 03:59:57;;;;;;;19.60;6.13;;;0.90;99.90;;;;;;5007525;28;20058;-83
2021/12/09 04:02:23;;;;;;;20.38;6.85;;;1.00;99.90;;;;;;5021408;28;20062;-83
2021/12/09 04:04:49;;;;;;;20.98;7.47;;;1.00;99.90;;;;;;5017327;28;20035;-84
2021/12/09 04:07:15;;;;;;;15.95;6.10;;;1.00;99.90;;;;;;5001653;28;20039;-83
2021/12/09 04:09:41;;;;;;;14.27;6.05;;;1.10;99.90;;;;;;4984953;28;20126;-83
2021/12/09 04:12:09;;;;;;;21.83;6.35;;;1.10;99.90;;;;;;5009786;28;20043;-83
2021/12/09 04:14:35;;;;;;;27.02;6.68;;;1.10;99.90;;;;;;5021910;28;20524;-83
2021/12/09 04:17:01;;;;;;;16.60;7.45;;;1.20;99.90;;;;;;4989095;28;20491;-83
2021/12/09 04:19:27;;;;;;;22.50;7.70;;;1.20;99.90;;;;;;5054140;28;20118;-83
2021/12/09 04:21:53;;;;;;;19.85;7.18;;;1.20;99.90;;;;;;5034447;28;20028;-83
2021/12/09 04:24:20;;;;;;;22.13;7.32;;;1.20;99.90;;;;;;5050370;28;20034;-83
2021/12/09 04:26:49;;;;;;;19.63;6.53;;;1.30;99.90;;;;;;5041332;28;20039;-83
2021/12/09 04:29:15;;;;;;;17.00;6.40;;;1.30;99.90;;;;;;5024715;28;20042;-83
2021/12/09 04:31:42;;;;;;;17.67;7.05;;;1.30;99.90;;;;;;5033869;28;20039;-83
2021/12/09 04:34:08;;;;;;;17.67;6.07;;;1.30;99.90;;;;;;5002681;28;20062;-82
2021/12/09 04:36:34;;;;;;;14.13;6.18;;;1.40;99.90;;;;;;5019570;28;20047;-82
2021/12/09 04:39:01;;;;;;;15.60;6.57;;;1.40;99.90;;;;;;4992452;28;20039;-82
2021/12/09 04:41:27;;;;;;;16.67;6.43;;;1.40;99.90;;;;;;4984630;28;20505;-82
2021/12/09 04:43:53;;;;;;;14.73;6.10;;;1.40;99.90;;;;;;5017133;28;20039;-82
2021/12/09 04:46:18;;;;;;;15.55;5.78;;;1.40;99.90;;;;;;5032421;28;20501;-82
2021/12/09 04:48:44;;;;;;;12.98;6.18;;;1.40;99.90;;;;;;5020951;28;20073;-82
2021/12/09 04:51:11;;;;;;;13.30;6.60;;;1.40;99.90;;;;;;4999239;28;20100;-82
2021/12/09 04:53:37;;;;;;;20.00;7.18;;;1.40;99.90;;;;;;5020418;28;20058;-82
2021/12/09 04:56:02;;;;;;;17.80;6.50;;;1.40;99.90;;;;;;5047988;28;20034;-82
2021/12/09 04:58:29;;;;;;;19.95;7.07;;;1.50;99.90;;;;;;5002241;28;20031;-82
2021/12/09 05:00:58;;;;;;;15.32;6.13;;;1.50;99.90;;;;;;5036814;28;20023;-81
2021/12/09 05:03:24;;;;;;;22.37;7.50;;;1.50;99.90;;;;;;5004663;28;20545;-82
2021/12/09 05:05:53;;;;;;;16.90;7.22;;;1.50;99.90;;;;;;5029539;28;20039;-82
2021/12/09 05:08:21;;;;;;;18.30;6.80;;;1.50;99.90;;;;;;4996956;28;20050;-82
2021/12/09 05:10:59;;;;;;;16.88;6.75;;;1.50;99.90;;;;;;5027398;28;20035;-82
2021/12/09 05:13:26;;;;;;;20.92;6.65;;;1.50;99.90;;;;;;5053179;28;20068;-82
2021/12/09 05:15:53;;;;;;;16.60;7.10;;;1.40;99.90;;;;;;5017893;28;20050;-82
2021/12/09 05:18:20;;;;;;;18.83;7.22;;;1.40;99.90;;;;;;5003769;28;20038;-82
2021/12/09 05:20:47;;;;;;;17.52;8.07;;;1.40;99.90;;;;;;5019966;28;20027;-82
2021/12/09 05:23:14;;;;;;;16.25;7.30;;;1.50;99.90;;;;;;5041475;28;20031;-81
2021/12/09 05:25:40;;;;;;;22.23;7.28;;;1.40;99.90;;;;;;4999939;28;20406;-82
2021/12/09 05:28:07;;;;;;;15.93;6.97;;;1.40;99.90;;;;;;4996956;28;20031;-82
2021/12/09 05:32:07;;;;;;;16.58;7.40;;;1.40;99.90;;;;;;4975153;28;20058;-82
2021/12/09 05:33:27;;;;;;;19.88;7.28;;;1.40;99.90;;;;;;4950614;28;20409;-82
2021/12/09 05:35:54;;;;;;;13.02;6.25;;;1.40;99.90;;;;;;4995581;28;20076;-82
2021/12/09 05:38:20;;;;;;;18.38;8.23;;;1.40;99.90;;;;;;5014974;28;20433;-82
2021/12/09 05:40:47;;;;;;;18.90;7.22;;;1.40;99.90;;;;;;5000143;28;20118;-82
2021/12/09 05:43:16;;;;;;;17.63;7.10;;;1.50;99.90;;;;;;5035606;28;20031;-82
2021/12/09 05:45:43;;;;;;;20.45;6.85;;;1.50;99.90;;;;;;5032728;28;20062;-82
2021/12/09 05:48:10;;;;;;;18.52;7.75;;;1.50;99.90;;;;;;5032934;28;20023;-82
2021/12/09 05:50:36;;;;;;;14.93;6.13;;;1.50;99.90;;;;;;5043067;28;20031;-82
2021/12/09 05:53:02;;;;;;;13.05;6.82;;;1.50;99.90;;;;;;5016128;28;20138;-82
2021/12/09 05:55:28;;;;;;;19.77;7.30;;;1.60;99.90;;;;;;5007977;28;20130;-82
2021/12/09 05:57:54;;;;;;;18.02;6.07;;;1.60;99.90;;;;;;5001473;28;20178;-82
2021/12/09 06:00:19;;;;;;;15.00;6.35;;;1.60;99.90;;;;;;4990234;28;20031;-82
2021/12/09 06:02:45;;;;;;;14.77;6.20;;;1.60;99.90;;;;;;5026084;28;20098;-82
2021/12/09 06:05:11;;;;;;;23.58;6.93;;;1.60;99.90;;;;;;5012350;28;20034;-82
2021/12/09 06:07:36;;;;;;;18.33;6.90;;;1.60;99.90;;;;;;5019376;28;20134;-82
2021/12/09 06:10:05;;;;;;;17.25;6.55;;;1.60;99.90;;;;;;5008206;28;20038;-82
2021/12/09 06:12:31;;;;;;;24.85;7.20;;;1.70;99.90;;;;;;5016154;28;20456;-82
2021/12/09 06:14:57;;;;;;;22.40;7.65;;;1.70;99.90;;;;;;5036021;28;20023;-82
2021/12/09 06:17:22;;;;;;;22.20;7.88;;;1.70;99.90;;;;;;5052040;28;20019;-82
2021/12/09 06:19:48;;;;;;;25.42;8.77;;;1.70;99.90;;;;;;5017580;28;20038;-82
2021/12/09 06:22:14;;;;;;;19.70;7.88;;;1.70;99.90;;;;;;5033772;28;20027;-82
2021/12/09 06:24:41;;;;;;;18.08;6.78;;;1.70;99.90;;;;;;5033234;28;20072;-82
2021/12/09 06:27:07;;;;;;;30.50;9.15;;;1.70;99.90;;;;;;5035157;28;20039;-82
2021/12/09 06:29:33;;;;;;;23.48;8.98;;;1.70;99.90;;;;;;5051560;28;20438;-82
2021/12/09 06:32:00;;;;;;;30.23;10.00;;;1.70;99.90;;;;;;5018358;28;20037;-83
2021/12/09 06:34:26;;;;;;;27.88;9.93;;;1.70;99.90;;;;;;5032481;28;20038;-82
2021/12/09 06:36:52;;;;;;;27.00;9.40;;;1.70;99.90;;;;;;5030604;28;20038;-82
2021/12/09 06:39:18;;;;;;;23.75;8.68;;;1.70;99.90;;;;;;5016370;28;20397;-82
2021/12/09 06:41:45;;;;;;;25.08;9.65;;;1.80;99.90;;;;;;5032210;28;20027;-82
2021/12/09 06:44:10;;;;;;;28.85;8.18;;;1.80;99.90;;;;;;4999225;28;20034;-82
2021/12/09 06:46:36;;;;;;;25.17;9.05;;;1.80;99.90;;;;;;5029931;28;20031;-82
2021/12/09 06:49:04;;;;;;;38.60;9.15;;;1.80;99.90;;;;;;5035470;28;20401;-82
2021/12/09 06:51:29;;;;;;;32.92;9.30;;;1.80;99.90;;;;;;5033680;28;20045;-83
2021/12/09 06:53:56;;;;;;;23.08;8.85;;;1.80;99.90;;;;;;5016550;28;20039;-83
2021/12/09 06:56:22;;;;;;;23.60;8.80;;;1.80;99.90;;;;;;4986379;28;20520;-83
2021/12/09 06:58:48;;;;;;;27.98;8.90;;;1.80;99.90;;;;;;4985694;28;20069;-83
2021/12/09 07:01:14;;;;;;;25.15;9.05;;;1.80;99.90;;;;;;5046454;28;20058;-83
2021/12/09 07:03:40;;;;;;;32.22;9.55;;;1.80;99.90;;;;;;5000749;28;20516;-83
2021/12/09 07:06:08;;;;;;;26.92;8.18;;;1.80;99.90;;;;;;5027760;28;20047;-83
2021/12/09 07:08:38;;;;;;;31.80;9.60;;;1.90;99.90;;;;;;5007569;28;20485;-82
2021/12/09 07:11:04;;;;;;;23.60;9.02;;;1.90;99.90;;;;;;5037358;28;20038;-82
2021/12/09 07:13:31;;;;;;;20.83;9.10;;;1.90;99.90;;;;;;5057522;28;20061;-82
2021/12/09 07:15:58;;;;;;;22.45;8.23;;;1.90;99.90;;;;;;5019885;28;20039;-83
2021/12/09 07:18:25;;;;;;;22.85;7.93;;;1.90;99.90;;;;;;5015594;28;20028;-82
2021/12/09 07:20:53;;;;;;;25.85;9.57;;;1.90;99.90;;;;;;5032142;28;20027;-82
2021/12/09 07:23:19;;;;;;;25.50;9.35;;;1.90;99.90;;;;;;5023460;28;20043;-82
2021/12/09 07:25:45;;;;;;;27.42;8.65;;;1.90;99.90;;;;;;5020979;28;20068;-82
2021/12/09 07:28:10;;;;;;;25.35;10.38;;;1.90;99.90;;;;;;5032248;28;20031;-82
2021/12/09 07:30:36;;;;;;;22.33;9.63;;;1.90;99.90;;;;;;5010680;28;20046;-82
2021/12/09 07:33:02;;;;;;;23.67;9.13;;;1.90;99.90;;;;;;5038596;28;20038;-82
2021/12/09 07:35:30;;;;;;;29.70;8.73;;;1.90;99.90;;;;;;5034178;28;20442;-82
2021/12/09 07:37:57;;;;;;;23.63;8.07;;;1.90;99.90;;;;;;4984983;28;20024;-82
2021/12/09 07:40:23;;;;;;;26.08;8.07;;;1.90;99.90;;;;;;5003280;28;20031;-82
2021/12/09 07:42:49;;;;;;;27.40;8.77;;;1.90;99.90;;;;;;5000301;28;20397;-82
2021/12/09 07:45:16;;;;;;;27.73;8.10;;;1.90;99.90;;;;;;5043381;28;20543;-82
2021/12/09 07:47:43;;;;;;;26.40;8.85;;;1.90;99.90;;;;;;5018489;28;20050;-82
2021/12/09 07:50:13;;;;;;;23.17;7.65;;;1.90;99.90;;;;;;5019672;28;20054;-82
2021/12/09 07:52:40;;;;;;;;;;;1.90;99.90;;;;;;5003088;28;20051;-82
2021/12/09 07:55:06;;;;;;;17.02;6.95;;;1.90;99.90;;;;;;5065502;22;20052;-83
2021/12/09 07:57:33;;;;;;;21.23;7.78;;;1.90;99.90;;;;;;5038668;28;20048;-85
2021/12/09 07:59:59;;;;;;;25.45;8.13;;;1.90;99.90;;;;;;5024166;28;20118;-84
2021/12/09 08:02:25;;;;;;;28.65;8.32;;;1.90;99.90;;;;;;5038061;28;20076;-84
2021/12/09 08:04:51;;;;;;;24.70;8.35;;;1.90;99.90;;;;;;5038065;28;20031;-84
2021/12/09 08:07:17;;;;;;;17.55;7.65;;;1.90;99.90;;;;;;5020330;28;20034;-87
2021/12/09 08:09:42;;;;;;;21.73;8.25;;;1.90;99.90;;;;;;5010186;28;20119;-84
2021/12/09 08:12:08;;;;;;;24.25;9.00;;;1.90;99.90;;;;;;5016550;28;20034;-85
2021/12/09 08:14:34;;;;;;;26.85;8.48;;;1.90;99.90;;;;;;5038123;28;20031;-85
2021/12/09 08:17:23;;;;;;;24.90;8.05;;;1.90;99.90;;;;;;5038143;28;20061;-85
2021/12/09 08:19:50;;;;;;;19.90;8.02;;;1.90;99.90;;;;;;5038088;28;20030;-85
2021/12/09 08:22:15;;;;;;;29.27;9.75;;;1.90;99.90;;;;;;5038069;28;20034;-85
2021/12/09 08:24:41;;;;;;;27.85;9.70;;;1.90;99.90;;;;;;5019417;28;20038;-85
2021/12/09 08:27:07;;;;;;;28.20;10.07;;;1.90;99.90;;;;;;5008649;28;20127;-84
2021/12/09 08:29:33;;;;;;;29.52;10.45;;;1.90;99.90;;;;;;5021164;28;20088;-85
2021/12/09 08:31:58;;;;;;;31.13;10.27;;;2.00;99.90;;;;;;5031666;28;20048;-85
2021/12/09 08:34:24;;;;;;;28.10;10.18;;;2.00;99.90;;;;;;5007401;28;20483;-84
2021/12/09 08:36:49;;;;;;;24.05;10.45;;;2.00;99.90;;;;;;5037734;28;20031;-84
2021/12/09 08:39:16;;;;;;;27.77;9.88;;;2.00;99.90;;;;;;5038048;28;20401;-84
2021/12/09 08:41:45;;;;;;;28.35;9.93;;;2.00;99.90;;;;;;5037201;28;20073;-84
2021/12/09 08:44:11;;;;;;;28.20;10.38;;;2.10;99.90;;;;;;5037541;28;20030;-84
2021/12/09 08:46:37;;;;;;;35.08;9.60;;;2.10;99.90;;;;;;5021370;28;20038;-84
2021/12/09 08:49:03;;;;;;;20.83;10.35;;;2.10;99.90;;;;;;5038004;28;20031;-84
2021/12/09 08:51:29;;;;;;;31.02;9.80;;;2.10;99.90;;;;;;5021361;28;20035;-84
2021/12/09 08:53:58;;;;;;;26.50;9.75;;;2.10;99.90;;;;;;5036188;28;20053;-84
2021/12/09 08:56:24;;;;;;;28.27;10.25;;;2.10;99.90;;;;;;5037680;28;20519;-84
2021/12/09 08:58:50;;;;;;;22.75;8.93;;;2.10;99.90;;;;;;5021010;28;20080;-84
2021/12/09 09:01:16;;;;;;;26.05;9.82;;;2.10;99.90;;;;;;5021329;28;20401;-83
2021/12/09 09:03:42;;;;;;;23.98;9.65;;;2.10;99.90;;;;;;5034873;28;20114;-84
2021/12/09 09:06:07;;;;;;;25.77;10.27;;;2.10;99.90;;;;;;5020488;28;20563;-84
2021/12/09 09:08:33;;;;;;;26.33;9.55;;;2.10;99.90;;;;;;5037009;28;20134;-84
2021/12/09 09:11:00;;;;;;;24.73;10.35;;;2.10;99.90;;;;;;5053552;28;20405;-84
2021/12/09 09:13:25;;;;;;;24.60;9.93;;;2.10;99.90;;;;;;5036911;28;20027;-84
2021/12/09 09:15:52;;;;;;;30.88;11.15;;;2.10;99.90;;;;;;5036806;28;20061;-84
2021/12/09 09:18:20;;;;;;;30.00;10.50;;;2.10;99.90;;;;;;5019792;28;20042;-85
2021/12/09 09:20:47;;;;;;;24.92;10.25;;;2.10;99.90;;;;;;5020636;28;20069;-85
2021/12/09 09:23:18;;;;;;;31.17;10.20;;;2.10;99.90;;;;;;5020960;28;20027;-85
2021/12/09 09:25:45;;;;;;;27.08;10.52;;;2.10;99.90;;;;;;5020582;28;20035;-84
2021/12/09 09:28:11;;;;;;;27.27;11.05;;;2.20;99.90;;;;;;5017130;28;20034;-83
2021/12/09 09:30:43;;;;;;;24.95;10.23;;;2.10;99.90;;;;;;5036648;28;20509;-84
2021/12/09 09:33:15;;;;;;;26.65;10.07;;;2.10;99.90;;;;;;5020915;28;20060;-84
2021/12/09 09:35:42;;;;;;;32.05;10.65;;;2.10;99.90;;;;;;5036862;28;20068;-84
2021/12/09 09:38:08;;;;;;;27.10;11.32;;;2.20;99.90;;;;;;5020114;28;20041;-84
2021/12/09 09:40:46;;;;;;;29.25;10.63;;;2.10;99.90;;;;;;5019671;28;20114;-84
2021/12/09 09:44:10;;;;;;;26.05;10.50;;;2.10;99.90;;;;;;5052561;28;20408;-84
2021/12/09 09:46:05;;;;;;;27.73;10.35;;;2.10;99.90;;;;;;5011366;28;20093;-84
2021/12/09 09:48:32;;;;;;;26.40;10.00;;;2.20;99.90;;;;;;5037132;28;20022;-83
2021/12/09 09:50:59;;;;;;;24.77;10.32;;;2.20;99.90;;;;;;5020526;28;20034;-84
2021/12/09 09:53:25;;;;;;;37.65;10.50;;;2.20;99.90;;;;;;5020447;28;20062;-85
2021/12/09 09:55:52;;;;;;;32.38;10.35;;;2.20;99.90;;;;;;5036671;28;20066;-84
2021/12/09 09:58:19;;;;;;;31.42;11.55;;;2.20;99.90;;;;;;5002083;28;20097;-85
2021/12/09 10:00:45;;;;;;;28.73;11.23;;;2.20;99.90;;;;;;5053486;28;20023;-84
2021/12/09 10:03:16;;;;;;;25.02;9.98;;;2.20;99.90;;;;;;5016537;28;20062;-85
2021/12/09 10:05:47;;;;;;;24.88;9.70;;;2.30;99.90;;;;;;5028540;28;20031;-84
2021/12/09 10:08:14;;;;;;;33.03;10.13;;;2.30;99.90;;;;;;5019643;28;20034;-83
2021/12/09 10:10:41;;;;;;;22.63;9.40;;;2.30;99.90;;;;;;5020019;28;20035;-85
2021/12/09 10:13:09;;;;;;;23.33;9.18;;;2.30;99.90;;;;;;5035120;28;20117;-84
2021/12/09 10:15:40;;;;;;;32.03;9.73;;;2.40;99.90;;;;;;5025825;28;20088;-84
2021/12/09 10:18:06;;;;;;;;;;;2.40;99.90;;;;;;5036132;28;20118;-84
2021/12/09 10:20:48;;;;;;;20.42;7.80;;;2.50;99.90;;;;;;5020787;28;20032;-84
2021/12/09 10:23:50;;;;;;;32.22;10.80;;;2.50;99.90;;;;;;5001108;28;20055;-83
2021/12/09 10:26:24;;;;;;;27.65;9.65;;;2.50;99.90;;;;;;5026193;28;20548;-84
2021/12/09 10:28:54;;;;;;;20.50;8.80;;;2.50;99.90;;;;;;5036310;28;20121;-84
2021/12/09 10:31:29;;;;;;;25.65;8.73;;;2.50;99.90;;;;;;5034963;28;20598;-83
2021/12/09 10:34:06;;;;;;;20.60;8.88;;;2.60;99.90;;;;;;5036253;28;20168;-84
2021/12/09 10:36:45;;;;;;;20.23;8.02;;;2.60;99.90;;;;;;5035950;28;20038;-84
2021/12/09 10:39:16;;;;;;;30.10;8.25;;;2.60;99.90;;;;;;5036277;28;20063;-83
2021/12/09 10:41:42;;;;;;;28.73;9.13;;;2.70;99.90;;;;;;5036276;28;20051;-84
2021/12/09 10:44:07;;;;;;;24.67;8.98;;;2.70;99.90;;;;;;5036044;28;20071;-83
2021/12/09 10:46:50;;;;;;;23.13;9.15;;;2.80;99.90;;;;;;5018588;28;20540;-85
2021/12/09 10:49:17;;;;;;;28.02;9.05;;;2.80;99.90;;;;;;5035814;28;20039;-84
2021/12/09 10:51:56;;;;;;;22.08;8.35;;;2.80;99.90;;;;;;5035437;28;20034;-84
2021/12/09 10:54:34;;;;;;;22.23;7.75;;;2.80;99.90;;;;;;5035500;28;20053;-84
2021/12/09 10:57:28;;;;;;;20.95;8.38;;;2.80;99.90;;;;;;5035580;28;20039;-85
2021/12/09 10:59:55;;;;;;;24.00;8.27;;;2.80;99.90;;;;;;5035677;28;20023;-86
2021/12/09 11:02:21;;;;;;;21.17;8.05;;;2.80;99.90;;;;;;5011705;28;20101;-85
2021/12/09 11:05:07;;;;;;;19.25;7.18;;;2.70;99.90;;;;;;4969898;28;20023;-84
2021/12/09 11:07:33;;;;;;;19.77;7.00;;;2.80;99.90;;;;;;5033820;28;20027;-84
2021/12/09 11:10:22;;;;;;;21.83;7.90;;;2.70;99.90;;;;;;5029423;28;20064;-85
2021/12/09 11:12:52;;;;;;;19.52;7.65;;;2.70;99.90;;;;;;5035110;28;20030;-86
2021/12/09 11:15:20;;;;;;;21.98;8.02;;;2.70;99.90;;;;;;5034884;28;20409;-86
2021/12/09 11:17:48;;;;;;;25.30;8.57;;;2.80;99.90;;;;;;5034746;28;20046;-85
2021/12/09 11:20:14;;;;;;;22.17;7.85;;;2.80;99.90;;;;;;5035027;28;20271;-85
2021/12/09 11:22:43;;;;;;;20.42;7.80;;;2.70;99.90;;;;;;5034972;28;20018;-85
2021/12/09 11:25:34;;;;;;;22.15;7.43;;;2.70;99.90;;;;;;5034007;28;20112;-85
2021/12/09 11:28:12;;;;;;;28.15;7.88;;;2.80;99.90;;;;;;5035108;28;20039;-85
2021/12/09 11:31:04;;;;;;;19.73;7.97;;;2.80;99.90;;;;;;5031006;28;20054;-85
2021/12/09 11:33:42;;;;;;;17.50;7.38;;;2.80;99.90;;;;;;5035387;28;20027;-85
2021/12/09 11:36:14;;;;;;;18.17;6.88;;;2.80;99.90;;;;;;5034824;28;20046;-85
2021/12/09 11:39:08;;;;;;;24.58;7.47;;;2.80;99.90;;;;;;5033356;28;20031;-84
2021/12/09 11:41:38;;;;;;;22.65;7.20;;;2.80;99.90;;;;;;5037268;28;20038;-85
2021/12/09 11:44:06;;;;;;;23.50;7.38;;;2.80;99.90;;;;;;5056765;28;20023;-86
2021/12/09 11:46:33;;;;;;;20.80;7.03;;;2.80;99.90;;;;;;5055212;28;20031;-85
2021/12/09 11:48:59;;;;;;;15.30;6.40;;;2.90;99.90;;;;;;5019766;28;20050;-85
2021/12/09 11:51:26;;;;;;;17.27;6.00;;;2.90;99.90;;;;;;5038432;28;20031;-85
2021/12/09 11:53:56;;;;;;;15.98;6.38;;;2.90;99.90;;;;;;5038278;28;20066;-85
2021/12/09 11:59:20;;;;;;;17.90;6.20;;;3.00;99.90;;;;;;5038410;28;20053;-85
2021/12/09 12:13:38;;;;;;;17.83;5.32;;;3.20;99.90;;;;;;5025853;28;20511;-85
2021/12/09 12:16:41;;;;;;;16.65;4.80;;;3.10;99.90;;;;;;5011849;28;20035;-85
2021/12/09 12:19:34;;;;;;;25.33;6.75;;;3.20;99.90;;;;;;5022138;28;20478;-85
2021/12/09 12:22:37;;;;;;;21.10;6.15;;;3.30;99.90;;;;;;5024796;28;20042;-85
2021/12/09 12:25:12;;;;;;;12.25;5.40;;;3.30;99.90;;;;;;5037528;28;20046;-86
2021/12/09 12:30:49;;;;;;;18.58;6.43;;;3.30;99.90;;;;;;5047881;28;20038;-86
2021/12/09 12:39:05;;;;;;;14.77;5.68;;;3.20;99.90;;;;;;4975171;28;20031;-86
2021/12/09 12:41:32;;;;;;;22.05;6.22;;;3.20;99.90;;;;;;5024282;28;20031;-85
2021/12/09 12:44:05;;;;;;;15.20;5.47;;;3.20;99.90;;;;;;5037855;28;20031;-86
2021/12/09 12:46:47;;;;;;;12.55;5.70;;;3.20;99.90;;;;;;5054151;28;20030;-85
2021/12/09 12:52:08;;;;;;;12.00;5.47;;;3.20;99.90;;;;;;5054261;28;20023;-86
2021/12/09 12:54:49;;;;;;;15.18;4.88;;;3.20;99.90;;;;;;5036492;28;20038;-86
2021/12/09 12:57:30;;;;;;;17.08;4.78;;;3.10;99.90;;;;;;5037516;28;20389;-86
2021/12/09 13:00:19;;;;;;;12.65;5.10;;;3.10;99.90;;;;;;5037344;28;20042;-85
2021/12/09 13:05:40;;;;;;;10.80;5.55;;;3.10;99.90;;;;;;5044405;28;20038;-86
2021/12/09 13:08:27;;;;;;;19.42;5.82;;;3.10;99.90;;;;;;5037190;28;20465;-86
2021/12/09 13:19:30;;;;;;;16.35;5.45;;;3.00;99.90;;;;;;4970813;28;20038;-86
2021/12/09 13:22:20;;;;;;;13.18;4.68;;;3.10;99.90;;;;;;5037054;28;20050;-86
2021/12/09 13:24:59;;;;;;;15.48;5.32;;;3.10;99.90;;;;;;5036637;28;20115;-86
2021/12/09 13:35:26;;;;;;;19.95;6.00;;;3.10;99.90;;;;;;5052846;28;20042;-85
2021/12/09 13:46:43;;;;;;;23.08;6.53;;;3.10;99.90;;;;;;5040566;28;20027;-85
2021/12/09 13:54:26;;;;;;;16.48;6.03;;;3.20;99.90;;;;;;5061484;22;20565;-84